Time;durP1;ratioP1;P1;durP2;ratioP2;P2;SDS_P1;SDS_P2;PMS_P1;PMS_P2;Temp;Humidity;BMP_temperature;BMP_pressure;BME280_temperature;BME280_humidity;BME280_pressure;Samples;Min_cycle;Max_cycle;Signal;HPM_P1;HPM_P2
2022/12/22 03:26:58;;;;;;;;;;;7.60;99.90;;;;;;5021989;28;19932;-72
2022/12/22 03:29:27;;;;;;;;;;;7.60;99.90;;;;;;5028596;28;20560;-71
2022/12/22 03:31:56;;;;;;;;;;;7.60;99.90;;;;;;4995438;28;20067;-73
2022/12/22 03:34:25;;;;;;;;;;;7.70;99.90;;;;;;5018453;28;20377;-71
2022/12/22 03:36:54;;;;;;;;;;;7.70;99.90;;;;;;5013937;28;19929;-71
2022/12/22 03:39:22;;;;;;;;;;;7.70;99.90;;;;;;5016347;28;19952;-71
2022/12/22 03:47:26;;;;;;;;;;;7.70;99.90;;;;;;5017473;28;19932;-71
2022/12/22 03:49:55;;;;;;;;;;;7.70;99.90;;;;;;5032005;28;19926;-72
2022/12/22 03:52:24;;;;;;;;;;;7.70;99.90;;;;;;5018429;28;20587;-70
2022/12/22 03:54:53;;;;;;;;;;;7.70;99.90;;;;;;5011598;28;20280;-71
2022/12/22 03:57:23;;;;;;;;;;;7.80;99.90;;;;;;5044710;28;19929;-71
2022/12/22 03:59:52;;;;;;;;;;;7.80;99.90;;;;;;5013745;28;19929;-72
2022/12/22 04:02:21;;;;;;;;;;;7.90;99.90;;;;;;5010941;28;19947;-72
2022/12/22 04:04:50;;;;;;;;;;;7.90;99.90;;;;;;5038899;28;19925;-71
2022/12/22 04:07:19;;;;;;;;;;;8.00;99.90;;;;;;4980103;28;20366;-70
2022/12/22 04:12:53;;;;;;;;;;;8.00;99.90;;;;;;5027454;28;19925;-71
2022/12/22 04:15:23;;;;;;;;;;;8.10;99.90;;;;;;5037771;28;20277;-71
2022/12/22 04:17:52;;;;;;;;;;;8.20;99.90;;;;;;5036336;28;19929;-72
2022/12/22 04:20:22;;;;;;;;;;;8.20;99.90;;;;;;4999070;28;20025;-71
2022/12/22 04:22:57;;;;;;;;;;;8.20;99.90;;;;;;5003436;28;19925;-72
2022/12/22 04:25:28;;;;;;;;;;;8.20;99.90;;;;;;5032096;28;19932;-70
2022/12/22 04:27:57;;;;;;;;;;;8.30;99.90;;;;;;4995942;28;19925;-70
2022/12/22 04:30:27;;;;;;;;;;;8.30;99.90;;;;;;4991144;28;19925;-71
2022/12/22 04:32:55;;;;;;;;;;;8.30;99.90;;;;;;5028329;28;19951;-71
2022/12/22 04:35:25;;;;;;;;;;;8.20;99.90;;;;;;5044154;28;19925;-71
2022/12/22 04:37:53;;;;;;;;;;;8.20;99.90;;;;;;5004136;28;19932;-71
2022/12/22 04:40:22;;;;;;;;;;;8.30;99.90;;;;;;5013325;28;20016;-71
2022/12/22 04:42:51;;;;;;;;;;;8.40;99.90;;;;;;4994976;28;19932;-71
2022/12/22 04:45:21;;;;;;;;;;;8.30;99.90;;;;;;5026701;28;19925;-71
2022/12/22 04:47:49;;;;;;;;;;;8.40;99.90;;;;;;5028686;28;20011;-71
2022/12/22 04:50:17;;;;;;;;;;;8.50;99.90;;;;;;5001571;28;19952;-71
2022/12/22 04:52:49;;;;;;;;;;;8.40;99.90;;;;;;5019180;28;19963;-71
2022/12/22 04:55:20;;;;;;;;;;;8.40;99.90;;;;;;5011556;28;19933;-71
2022/12/22 04:57:52;;;;;;;;;;;8.40;99.90;;;;;;5027239;28;19929;-71
2022/12/22 05:00:24;;;;;;;;;;;8.40;99.90;;;;;;5030312;28;20012;-71
2022/12/22 05:02:52;;;;;;;;;;;8.50;99.90;;;;;;5028323;28;19925;-72
2022/12/22 05:05:23;;;;;;;;;;;8.40;99.90;;;;;;5022556;28;19925;-71
2022/12/22 05:07:50;;;;;;;;;;;8.40;99.90;;;;;;5014623;28;20380;-71
2022/12/22 05:10:22;;;;;;;;;;;8.50;99.90;;;;;;5000754;28;19933;-72
2022/12/22 05:12:55;;;;;;;;;;;8.50;99.90;;;;;;5033346;28;19932;-70
2022/12/22 05:15:26;;;;;;;;;;;8.50;99.90;;;;;;5026431;28;20007;-72
2022/12/22 05:17:59;;;;;;;;;;;8.50;99.90;;;;;;5036978;28;19925;-72
2022/12/22 05:20:28;;;;;;;;;;;8.50;99.90;;;;;;5035317;28;19940;-70
2022/12/22 05:23:00;;;;;;;;;;;8.60;99.90;;;;;;5038800;28;19953;-71
2022/12/22 05:25:30;;;;;;;;;;;8.60;99.90;;;;;;5005783;28;20302;-71
2022/12/22 05:28:00;;;;;;;;;;;8.60;99.90;;;;;;5037762;28;19932;-70
2022/12/22 05:30:29;;;;;;;;;;;8.60;99.90;;;;;;5001638;28;19948;-70
2022/12/22 05:32:58;;;;;;;;;;;8.60;99.90;;;;;;5031940;28;19933;-71
2022/12/22 05:35:28;;;;;;;;;;;8.60;99.90;;;;;;5031387;28;20391;-71
2022/12/22 05:37:59;;;;;;;;;;;8.50;99.90;;;;;;5019872;28;19925;-72
2022/12/22 05:40:28;;;;;;;;;;;8.50;99.90;;;;;;5005168;28;19953;-72
2022/12/22 05:42:57;;;;;;;;;;;8.50;99.90;;;;;;4999385;28;19929;-71
2022/12/22 05:45:27;;;;;;;;;;;8.50;99.90;;;;;;5010474;28;19933;-71
2022/12/22 05:47:55;;;;;;;;;;;8.60;99.90;;;;;;5015333;28;19932;-71
2022/12/22 05:50:24;;;;;;;;;;;8.60;99.90;;;;;;4999759;28;20292;-71
2022/12/22 05:53:04;;;;;;;;;;;8.60;99.90;;;;;;4996948;28;20133;-71
2022/12/22 05:55:33;;;;;;;;;;;8.50;99.90;;;;;;5012695;28;19971;-71
2022/12/22 05:58:03;;;;;;;;;;;8.50;99.90;;;;;;5025928;28;19945;-71
2022/12/22 06:00:32;;;;;;;;;;;8.50;99.90;;;;;;4989997;28;20385;-71
2022/12/22 06:03:01;;;;;;;;;;;8.50;99.90;;;;;;5031670;28;20303;-71
2022/12/22 06:05:31;;;;;;;;;;;8.50;99.90;;;;;;4994884;28;19926;-71
2022/12/22 06:08:04;;;;;;;;;;;8.40;99.90;;;;;;4984295;28;20387;-71
2022/12/22 06:10:33;;;;;;;;;;;8.50;99.90;;;;;;5009842;28;19929;-70
2022/12/22 06:13:02;;;;;;;;;;;8.40;99.90;;;;;;5015846;28;19956;-71
2022/12/22 06:15:31;;;;;;;;;;;8.40;99.90;;;;;;5037533;28;19925;-71
2022/12/22 06:18:01;;;;;;;;;;;8.40;99.90;;;;;;5029983;28;19932;-73
2022/12/22 06:20:31;;;;;;;;;;;8.40;99.90;;;;;;5022611;28;19926;-71
2022/12/22 06:23:02;;;;;;;;;;;8.40;99.90;;;;;;5020377;28;20403;-71
2022/12/22 06:25:32;;;;;;;;;;;8.50;99.90;;;;;;5005706;28;19940;-70
2022/12/22 06:28:01;;;;;;;;;;;8.50;99.90;;;;;;5010348;28;19929;-71
2022/12/22 06:30:30;;;;;;;;;;;8.40;99.90;;;;;;5034959;28;20048;-73
2022/12/22 06:33:00;;;;;;;;;;;8.40;99.90;;;;;;5014124;28;20012;-71
2022/12/22 06:35:29;;;;;;;;;;;8.50;99.90;;;;;;5024977;28;20012;-70
2022/12/22 06:37:58;;;;;;;;;;;8.60;99.90;;;;;;5026868;28;19976;-71
2022/12/22 06:40:31;;;;;;;;;;;8.70;99.90;;;;;;5009677;28;19925;-70
2022/12/22 06:43:09;;;;;;;;;;;8.80;99.90;;;;;;5002981;28;20396;-72
2022/12/22 06:45:40;;;;;;;;;;;8.70;99.90;;;;;;5020753;28;20371;-71
2022/12/22 06:48:13;;;;;;;;;;;8.70;99.90;;;;;;5006621;28;20027;-71
2022/12/22 06:50:42;;;;;;;;;;;8.60;99.90;;;;;;5010886;28;20685;-72
2022/12/22 06:53:13;;;;;;;;;;;8.70;99.90;;;;;;5013105;28;20323;-71
2022/12/22 06:55:43;;;;;;;;;;;8.80;99.90;;;;;;5011096;28;20297;-71
2022/12/22 06:58:12;;;;;;;;;;;8.80;99.90;;;;;;5014692;28;19929;-71
2022/12/22 07:00:41;;;;;;;;;;;8.80;99.90;;;;;;5016216;28;19932;-72
2022/12/22 07:03:10;;;;;;;;;;;8.80;99.90;;;;;;5021166;28;20013;-71
2022/12/22 07:05:39;;;;;;;;;;;8.80;99.90;;;;;;5012726;28;19926;-70
2022/12/22 07:08:08;;;;;;;;;;;9.00;99.90;;;;;;5012591;28;19926;-71
2022/12/22 07:13:35;;;;;;;;;;;9.00;99.90;;;;;;5013844;28;19939;-70
2022/12/22 07:19:25;;;;;;;;;;;9.00;99.90;;;;;;5015331;28;19940;-71
2022/12/22 07:21:53;;;;;;;;;;;9.10;99.90;;;;;;5038324;28;19925;-71
2022/12/22 07:24:24;;;;;;;;;;;9.20;99.90;;;;;;5022224;28;19929;-71
2022/12/22 07:26:52;;;;;;;;;;;9.30;99.90;;;;;;5027820;28;19934;-71
2022/12/22 07:29:22;;;;;;;;;;;9.20;99.90;;;;;;4981321;28;19925;-71
2022/12/22 07:31:52;;;;;;;;;;;9.20;99.90;;;;;;5008743;28;20256;-70
2022/12/22 07:34:22;;;;;;;;;;;9.20;99.90;;;;;;5023699;28;20047;-70
2022/12/22 07:36:56;;;;;;;;;;;9.30;99.90;;;;;;5033505;28;19926;-71
2022/12/22 07:39:23;;;;;;;;;;;9.30;99.90;;;;;;5014860;28;20496;-72
2022/12/22 07:44:39;;;;;;;;;;;9.30;99.90;;;;;;5023157;28;19926;-70
2022/12/22 07:47:10;;;;;;;;;;;9.30;99.90;;;;;;4989574;28;19925;-71
2022/12/22 07:52:34;;;;;;;;;;;9.30;99.90;;;;;;5016087;28;19925;-70
2022/12/22 07:55:04;;;;;;;;;;;9.30;99.90;;;;;;5028807;28;20380;-71
2022/12/22 07:57:34;;;;;;;;;;;9.20;99.90;;;;;;4986084;28;19925;-71
2022/12/22 08:00:06;;;;;;;;;;;9.20;99.90;;;;;;5026746;28;20012;-71
2022/12/22 08:02:40;;;;;;;;;;;9.20;99.90;;;;;;5011219;28;19932;-72
2022/12/22 08:05:11;;;;;;;;;;;9.30;99.90;;;;;;5040652;28;20323;-71
2022/12/22 08:07:41;;;;;;;;;;;9.30;99.90;;;;;;5019158;28;19972;-70
2022/12/22 08:10:12;;;;;;;;;;;9.30;99.90;;;;;;5006511;28;19926;-71
2022/12/22 08:12:43;;;;;;;;;;;9.40;99.90;;;;;;5002103;28;20375;-71
2022/12/22 08:15:10;;;;;;;;;;;9.40;99.90;;;;;;5008632;28;20451;-71
2022/12/22 08:17:39;;;;;;;;;;;9.40;99.90;;;;;;5012559;28;19961;-71
2022/12/22 08:20:14;;;;;;;;;;;9.40;99.90;;;;;;5014040;28;19930;-71
2022/12/22 08:22:50;;;;;;;;;;;9.40;99.90;;;;;;5021449;28;19932;-71
2022/12/22 08:25:22;;;;;;;;;;;9.40;99.90;;;;;;4993625;28;19925;-71
2022/12/22 08:27:55;;;;;;;;;;;9.40;99.90;;;;;;5020825;28;19932;-71
2022/12/22 08:30:30;;;;;;;;;;;9.50;99.90;;;;;;5006597;28;20407;-71
2022/12/22 08:33:02;;;;;;;;;;;9.60;99.90;;;;;;5021144;28;20388;-70
2022/12/22 08:35:34;;;;;;;;;;;9.60;99.90;;;;;;5012007;28;19926;-71
2022/12/22 08:38:03;;;;;;;;;;;9.50;99.90;;;;;;5014264;28;20399;-70
2022/12/22 08:40:33;;;;;;;;;;;9.60;99.90;;;;;;5012160;28;19967;-71
2022/12/22 08:43:03;;;;;;;;;;;9.50;99.90;;;;;;5033256;28;20016;-70
2022/12/22 08:45:33;;;;;;;;;;;9.40;99.90;;;;;;4997488;28;19933;-71
2022/12/22 08:48:01;;;;;;;;;;;9.30;99.90;;;;;;4996550;28;19929;-72
2022/12/22 08:50:31;;;;;;;;;;;9.10;99.90;;;;;;4994203;28;20391;-71
2022/12/22 08:53:01;;;;;;;;;;;9.00;99.90;;;;;;5014223;28;20008;-70
2022/12/22 08:55:28;;;;;;;;;;;9.10;99.90;;;;;;4995352;28;19981;-70
2022/12/22 08:57:58;;;;;;;;;;;9.20;99.90;;;;;;5008224;28;20009;-70
2022/12/22 09:00:26;;;;;;;;;;;9.10;99.90;;;;;;5022787;28;19929;-70
2022/12/22 09:02:56;;;;;;;;;;;9.10;99.90;;;;;;4979199;28;19997;-70
2022/12/22 09:05:24;;;;;;;;;;;9.10;99.90;;;;;;5018957;28;19925;-70
2022/12/22 09:07:51;;;;;;;;;;;9.10;99.90;;;;;;5003257;28;19926;-70
2022/12/22 09:10:21;;;;;;;;;;;9.20;99.90;;;;;;5021381;28;19925;-70
2022/12/22 09:12:50;;;;;;;;;;;9.30;99.90;;;;;;5000018;28;19931;-71
2022/12/22 09:15:18;;;;;;;;;;;9.40;99.90;;;;;;5022453;28;19929;-72
2022/12/22 09:17:47;;;;;;;;;;;9.40;99.90;;;;;;5024468;28;19933;-71
2022/12/22 09:20:16;;;;;;;;;;;9.50;99.90;;;;;;4998246;28;19928;-70
2022/12/22 09:22:43;;;;;;;;;;;9.60;99.90;;;;;;5009140;28;19973;-71
2022/12/22 09:25:17;;;;;;;;;;;9.60;99.90;;;;;;5016883;28;20559;-70
2022/12/22 09:27:46;;;;;;;;;;;9.70;99.90;;;;;;5001230;28;20489;-71
2022/12/22 09:30:15;;;;;;;;;;;9.70;99.90;;;;;;5009095;28;19926;-71
2022/12/22 09:32:45;;;;;;;;;;;9.90;99.90;;;;;;5029781;28;19925;-70
2022/12/22 09:35:14;;;;;;;;;;;10.00;99.90;;;;;;4977448;28;20312;-71
2022/12/22 09:37:52;;;;;;;;;;;10.10;99.90;;;;;;5086640;27;19923;-71
2022/12/22 09:40:23;;;;;;;;;;;10.10;99.90;;;;;;5058958;28;20047;-71
2022/12/22 09:42:52;;;;;;;;;;;10.10;99.90;;;;;;5044266;28;19932;-72
2022/12/22 09:45:22;;;;;;;;;;;10.10;99.90;;;;;;5054256;28;20477;-70
2022/12/22 09:47:54;;;;;;;;;;;10.10;99.90;;;;;;5051764;28;20386;-72
2022/12/22 09:50:25;;;;;;;;;;;10.10;99.90;;;;;;5067451;28;20379;-71
2022/12/22 09:52:56;;;;;;;;;;;10.00;99.90;;;;;;5058611;28;19947;-73
2022/12/22 09:55:25;;;;;;;;;;;10.00;99.90;;;;;;5053523;28;20023;-71
2022/12/22 09:58:20;;;;;;;;;;;10.00;99.90;;;;;;5062676;28;19963;-72
2022/12/22 10:01:14;;;;;;;;;;;9.90;99.90;;;;;;5064375;28;20027;-71
2022/12/22 10:03:47;;;;;;;;;;;9.70;99.90;;;;;;5066441;28;19924;-72
2022/12/22 10:06:24;;;;;;;;;;;9.70;99.90;;;;;;5056379;28;19924;-72
2022/12/22 10:08:53;;;;;;;;;;;9.60;99.90;;;;;;5059181;28;20015;-72
2022/12/22 10:11:23;;;;;;;;;;;9.60;99.90;;;;;;5064275;28;19940;-73
2022/12/22 10:14:09;;;;;;;;;;;9.50;99.90;;;;;;5046065;28;19924;-72
2022/12/22 10:16:39;;;;;;;;;;;9.30;99.90;;;;;;5070960;28;19932;-71
2022/12/22 10:19:13;;;;;;;;;;;9.20;99.90;;;;;;5068905;28;20450;-71
2022/12/22 10:21:42;;;;;;;;;;;9.20;99.90;;;;;;5064133;28;19935;-71
2022/12/22 10:24:29;;;;;;;;;;;9.20;99.90;;;;;;5053649;28;20422;-71
2022/12/22 10:27:03;;;;;;;;;;;9.20;99.90;;;;;;5064049;28;19939;-72
2022/12/22 10:29:33;;;;;;;;;;;9.20;99.90;;;;;;5064903;28;20017;-71
2022/12/22 10:35:04;;;;;;;;;;;9.40;99.90;;;;;;5062422;28;19924;-71
2022/12/22 10:37:36;;;;;;;;;;;9.40;99.90;;;;;;5042957;28;19925;-72
2022/12/22 10:40:12;;;;;;;;;;;9.60;99.90;;;;;;5052528;28;19967;-71
2022/12/22 10:42:45;;;;;;;;;;;9.60;99.90;;;;;;5033470;28;19931;-72
2022/12/22 10:45:21;;;;;;;;;;;9.50;99.90;;;;;;5056394;28;19925;-72
2022/12/22 10:47:57;;;;;;;;;;;9.40;99.90;;;;;;5062345;28;19924;-74
2022/12/22 10:50:42;;;;;;;;;;;9.30;99.90;;;;;;5046540;28;20437;-73
2022/12/22 10:53:12;;;;;;;;;;;9.20;99.90;;;;;;5069477;28;19935;-72
2022/12/22 10:55:42;;;;;;;;;;;9.10;99.90;;;;;;5020252;28;19924;-72
2022/12/22 10:58:17;;;;;;;;;;;9.10;99.90;;;;;;5027086;28;20369;-72
2022/12/22 11:01:01;;;;;;;;;;;9.10;99.90;;;;;;5055042;28;20023;-72
2022/12/22 11:03:37;;;;;;;;;;;9.10;99.90;;;;;;5055482;28;19947;-72
2022/12/22 11:06:15;;;;;;;;;;;9.10;99.90;;;;;;5057080;28;20540;-72
2022/12/22 11:08:45;;;;;;;;;;;9.10;99.90;;;;;;5038481;28;20306;-71
2022/12/22 11:11:13;;;;;;;;;;;9.20;99.90;;;;;;5056430;28;19959;-72
2022/12/22 11:13:53;;;;;;;;;;;9.20;99.90;;;;;;5055289;28;19924;-71
2022/12/22 11:16:28;;;;;;;;;;;9.30;99.90;;;;;;5039598;28;20074;-72
2022/12/22 11:19:08;;;;;;;;;;;9.40;99.90;;;;;;5071282;28;19928;-72
2022/12/22 11:21:41;;;;;;;;;;;9.40;99.90;;;;;;5060791;28;20050;-72
2022/12/22 11:24:10;;;;;;;;;;;9.50;99.90;;;;;;5054862;28;19925;-70
2022/12/22 11:26:41;;;;;;;;;;;9.50;99.90;;;;;;5055596;28;20027;-71
2022/12/22 11:29:13;;;;;;;;;;;9.50;99.90;;;;;;5035117;28;20026;-71
2022/12/22 11:31:48;;;;;;;;;;;9.60;99.90;;;;;;5032620;28;19963;-72
2022/12/22 11:34:32;;;;;;;;;;;9.60;99.90;;;;;;5052317;28;19924;-72
2022/12/22 11:37:17;;;;;;;;;;;9.60;99.90;;;;;;5054988;28;19988;-71
2022/12/22 11:39:53;;;;;;;;;;;9.60;99.90;;;;;;5041809;28;19931;-74
2022/12/22 11:42:23;;;;;;;;;;;9.70;99.90;;;;;;5022505;28;19975;-71
2022/12/22 11:45:10;;;;;;;;;;;9.70;99.90;;;;;;5033278;28;19929;-74
2022/12/22 11:48:03;;;;;;;;;;;9.70;99.90;;;;;;5034609;28;19934;-74
2022/12/22 11:50:35;;;;;;;;;;;9.70;99.90;;;;;;5047785;28;19924;-73
2022/12/22 11:53:15;;;;;;;;;;;9.80;99.90;;;;;;5053020;28;19935;-71
2022/12/22 11:55:44;;;;;;;;;;;9.80;99.90;;;;;;5024109;28;20015;-70
2022/12/22 11:58:13;;;;;;;;;;;9.90;99.90;;;;;;5038150;28;19932;-70
2022/12/22 12:00:48;;;;;;;;;;;9.90;99.90;;;;;;5030528;28;19928;-72
2022/12/22 12:03:19;;;;;;;;;;;9.90;99.90;;;;;;5022836;28;19924;-72
2022/12/22 12:06:01;;;;;;;;;;;10.00;99.90;;;;;;5046138;28;19947;-71
2022/12/22 12:08:35;;;;;;;;;;;10.00;99.90;;;;;;5034772;28;20399;-73
2022/12/22 12:11:41;;;;;;;;;;;10.00;99.90;;;;;;5045606;28;20021;-71
2022/12/22 12:14:23;;;;;;;;;;;10.10;99.90;;;;;;4995613;28;19936;-72
2022/12/22 12:17:02;;;;;;;;;;;10.10;99.90;;;;;;5047208;28;20080;-72
2022/12/22 12:19:30;;;;;;;;;;;10.10;99.90;;;;;;5038285;28;19932;-71
2022/12/22 12:22:01;;;;;;;;;;;10.10;99.90;;;;;;5034565;28;19925;-72
2022/12/22 12:24:49;;;;;;;;;;;10.20;99.90;;;;;;5025526;28;20283;-72
2022/12/22 12:27:17;;;;;;;;;;;10.20;99.90;;;;;;5034198;28;19925;-71
2022/12/22 12:29:48;;;;;;;;;;;10.30;99.90;;;;;;5048010;28;19964;-71
2022/12/22 12:32:21;;;;;;;;;;;10.30;99.90;;;;;;5044162;28;19925;-72
2022/12/22 12:34:56;;;;;;;;;;;10.30;99.90;;;;;;5047985;28;19970;-73
2022/12/22 12:37:36;;;;;;;;;;;10.40;99.90;;;;;;5041523;28;19933;-72
2022/12/22 12:40:22;;;;;;;;;;;10.40;99.90;;;;;;5030232;28;20361;-72
2022/12/22 12:42:52;;;;;;;;;;;10.30;99.90;;;;;;5035101;28;19970;-72
2022/12/22 12:45:35;;;;;;;;;;;10.40;99.90;;;;;;5038311;28;19967;-72
2022/12/22 12:48:19;;;;;;;;;;;10.40;99.90;;;;;;5042694;28;20018;-72
2022/12/22 12:50:51;;;;;;;;;;;10.40;99.90;;;;;;5041744;28;19979;-73
2022/12/22 12:53:26;;;;;;;;;;;10.40;99.90;;;;;;5035434;28;19924;-72
2022/12/22 12:55:59;;;;;;;;;;;10.40;99.90;;;;;;5049758;28;19925;-72
2022/12/22 12:58:38;;;;;;;;;;;10.40;99.90;;;;;;5043278;28;19931;-72
2022/12/22 13:01:11;;;;;;;;;;;10.40;99.90;;;;;;5048877;28;19925;-72
2022/12/22 13:03:41;;;;;;;;;;;10.30;99.90;;;;;;5036558;28;19924;-72
2022/12/22 13:06:31;;;;;;;;;;;10.30;99.90;;;;;;5046236;28;19964;-73
2022/12/22 13:09:01;;;;;;;;;;;10.30;99.90;;;;;;5031456;28;19932;-73
2022/12/22 13:11:34;;;;;;;;;;;10.30;99.90;;;;;;5036130;28;19956;-72
2022/12/22 13:14:07;;;;;;;;;;;10.40;99.90;;;;;;5032612;28;20024;-72
2022/12/22 13:16:39;;;;;;;;;;;10.40;99.90;;;;;;5032484;28;19936;-73
2022/12/22 13:19:21;;;;;;;;;;;10.40;99.90;;;;;;5055348;28;19932;-72
2022/12/22 13:21:56;;;;;;;;;;;10.40;99.90;;;;;;5049486;28;19935;-72
2022/12/22 13:24:30;;;;;;;;;;;10.40;99.90;;;;;;5044731;28;20315;-72
2022/12/22 13:27:00;;;;;;;;;;;10.40;99.90;;;;;;5037973;28;20102;-72
2022/12/22 13:29:38;;;;;;;;;;;10.50;99.90;;;;;;5047803;28;20027;-72
2022/12/22 13:32:16;;;;;;;;;;;10.50;99.90;;;;;;5017174;28;19925;-74
2022/12/22 13:34:53;;;;;;;;;;;10.50;99.90;;;;;;5016921;28;19931;-72
2022/12/22 13:37:27;;;;;;;;;;;10.50;99.90;;;;;;5034805;28;19939;-72
2022/12/22 13:40:06;;;;;;;;;;;10.50;99.90;;;;;;5034129;28;19925;-72
2022/12/22 13:42:38;;;;;;;;;;;10.50;99.90;;;;;;5051401;28;19963;-73
2022/12/22 13:45:28;;;;;;;;;;;10.50;99.90;;;;;;5053284;28;20379;-72
2022/12/22 13:47:58;;;;;;;;;;;10.50;99.90;;;;;;5030709;28;20043;-72
2022/12/22 13:50:33;;;;;;;;;;;10.60;99.90;;;;;;5042797;28;20023;-72
2022/12/22 13:53:05;;;;;;;;;;;10.60;99.90;;;;;;5034667;28;20336;-72
2022/12/22 13:55:34;;;;;;;;;;;10.60;99.90;;;;;;5050169;28;19929;-72
2022/12/22 13:58:06;;;;;;;;;;;10.60;99.90;;;;;;5040998;28;20345;-72
2022/12/22 14:00:34;;;;;;;;;;;10.60;99.90;;;;;;5039076;28;20027;-73
2022/12/22 14:03:03;;;;;;;;;;;10.60;99.90;;;;;;5041568;28;19937;-72
2022/12/22 14:05:31;;;;;;;;;;;10.70;99.90;;;;;;5039271;28;19979;-73
2022/12/22 14:08:01;;;;;;;;;;;10.70;99.90;;;;;;5054680;28;19925;-73
2022/12/22 14:10:36;;;;;;;;;;;10.60;99.90;;;;;;5046971;28;20371;-72
2022/12/22 14:13:05;;;;;;;;;;;10.70;99.90;;;;;;5037198;28;19928;-72
2022/12/22 14:15:39;;;;;;;;;;;10.60;99.90;;;;;;5044771;28;19933;-73
2022/12/22 14:18:24;;;;;;;;;;;10.70;99.90;;;;;;5042333;28;19928;-72
2022/12/22 14:20:54;;;;;;;;;;;10.70;99.90;;;;;;5027816;28;19936;-73
2022/12/22 14:23:24;;;;;;;;;;;10.60;99.90;;;;;;5034374;28;19936;-72
2022/12/22 14:25:58;;;;;;;;;;;10.60;99.90;;;;;;5058114;28;19928;-73
2022/12/22 14:28:31;;;;;;;;;;;10.70;99.90;;;;;;5030748;28;19929;-72
2022/12/22 14:31:04;;;;;;;;;;;10.70;99.90;;;;;;5057781;28;19931;-72
2022/12/22 14:33:37;;;;;;;;;;;10.70;99.90;;;;;;5060879;28;19987;-72
2022/12/22 14:36:15;;;;;;;;;;;10.70;99.90;;;;;;5030784;28;19929;-72
2022/12/22 14:38:51;;;;;;;;;;;10.70;99.90;;;;;;5052047;28;20166;-72
2022/12/22 14:41:42;;;;;;;;;;;10.70;99.90;;;;;;5039958;28;20019;-72
2022/12/22 14:44:13;;;;;;;;;;;10.70;99.90;;;;;;5045838;28;19925;-72
2022/12/22 14:46:44;;;;;;;;;;;10.70;99.90;;;;;;5044095;28;19951;-73
2022/12/22 14:49:17;;;;;;;;;;;10.70;99.90;;;;;;5052925;28;19978;-72
2022/12/22 14:52:02;;;;;;;;;;;10.60;99.90;;;;;;5054865;28;19930;-72
2022/12/22 14:54:32;;;;;;;;;;;10.70;99.90;;;;;;5063791;28;19931;-72
2022/12/22 14:57:08;;;;;;;;;;;10.50;99.90;;;;;;5053826;28;19924;-72
2022/12/22 14:59:36;;;;;;;;;;;10.60;99.90;;;;;;5037042;28;19929;-72
2022/12/22 15:02:24;;;;;;;;;;;10.60;99.90;;;;;;5037247;28;19967;-72
2022/12/22 15:05:11;;;;;;;;;;;10.60;99.90;;;;;;5055288;28;20023;-72
2022/12/22 15:07:43;;;;;;;;;;;10.60;99.90;;;;;;5051539;28;19971;-71
2022/12/22 15:10:11;;;;;;;;;;;10.60;99.90;;;;;;5032689;28;20291;-72
2022/12/22 15:12:39;;;;;;;;;;;10.60;99.90;;;;;;5036985;28;19932;-72
2022/12/22 15:15:17;;;;;;;;;;;10.60;99.90;;;;;;5051934;28;19928;-72
2022/12/22 15:17:48;;;;;;;;;;;10.50;99.90;;;;;;5035049;28;19929;-72
2022/12/22 15:20:23;;;;;;;;;;;10.50;99.90;;;;;;5046440;28;19925;-72
2022/12/22 15:22:52;;;;;;;;;;;10.50;99.90;;;;;;5061902;28;19928;-72
2022/12/22 15:25:22;;;;;;;;;;;10.40;99.90;;;;;;5054615;28;19928;-72
2022/12/22 15:27:52;;;;;;;;;;;10.40;99.90;;;;;;5054305;28;20057;-72
2022/12/22 15:30:27;;;;;;;;;;;10.40;99.90;;;;;;5034754;28;20292;-72
2022/12/22 15:32:57;;;;;;;;;;;10.40;99.90;;;;;;5060942;28;19931;-72
2022/12/22 15:35:56;;;;;;;;;;;10.30;99.90;;;;;;5054266;28;19935;-72
2022/12/22 15:38:25;;;;;;;;;;;10.30;99.90;;;;;;5034061;28;19928;-72
2022/12/22 15:40:55;;;;;;;;;;;10.30;99.90;;;;;;5047280;28;19935;-73
2022/12/22 15:43:24;;;;;;;;;;;10.30;99.90;;;;;;5044939;28;19928;-73
2022/12/22 15:46:06;;;;;;;;;;;10.30;99.90;;;;;;5034196;28;19924;-73
2022/12/22 15:48:37;;;;;;;;;;;10.30;99.90;;;;;;5044371;28;20022;-73
2022/12/22 15:51:08;;;;;;;;;;;10.20;99.90;;;;;;5038062;28;19924;-73
2022/12/22 15:53:39;;;;;;;;;;;10.20;99.90;;;;;;5055688;28;19928;-73
2022/12/22 15:56:18;;;;;;;;;;;10.20;99.90;;;;;;5052847;28;20106;-73
2022/12/22 15:58:48;;;;;;;;;;;10.10;99.90;;;;;;5050776;28;19932;-72
2022/12/22 16:01:18;;;;;;;;;;;10.20;99.90;;;;;;5052328;28;19990;-73
2022/12/22 16:03:46;;;;;;;;;;;10.20;99.90;;;;;;5057908;28;19935;-73
2022/12/22 16:06:19;;;;;;;;;;;10.20;99.90;;;;;;5036984;28;19932;-72
2022/12/22 16:08:50;;;;;;;;;;;10.20;99.90;;;;;;5031065;28;19935;-72
2022/12/22 16:11:20;;;;;;;;;;;10.20;99.90;;;;;;5057428;28;20576;-73
2022/12/22 16:13:51;;;;;;;;;;;10.20;99.90;;;;;;5061978;28;19924;-73
2022/12/22 16:16:23;;;;;;;;;;;10.10;99.90;;;;;;5066244;28;20020;-73
2022/12/22 16:18:54;;;;;;;;;;;10.10;99.90;;;;;;5037106;28;19936;-73
2022/12/22 16:21:31;;;;;;;;;;;10.10;99.90;;;;;;5053375;28;20600;-73
2022/12/22 16:24:02;;;;;;;;;;;10.10;99.90;;;;;;5054181;28;20015;-73
2022/12/22 16:26:31;;;;;;;;;;;10.00;99.90;;;;;;5038647;28;19932;-72
2022/12/22 16:29:01;;;;;;;;;;;10.00;99.90;;;;;;5039297;28;19929;-73
2022/12/22 16:31:30;;;;;;;;;;;10.00;99.90;;;;;;5027105;28;19928;-73
2022/12/22 16:33:59;;;;;;;;;;;10.00;99.90;;;;;;5047129;28;19928;-73
2022/12/22 16:36:29;;;;;;;;;;;10.00;99.90;;;;;;5014394;28;19928;-73
2022/12/22 16:38:58;;;;;;;;;;;10.00;99.90;;;;;;5047553;28;19924;-72
2022/12/22 16:41:27;;;;;;;;;;;10.00;99.90;;;;;;5036992;28;19924;-73
2022/12/22 16:43:57;;;;;;;;;;;10.00;99.90;;;;;;5050075;28;19935;-73
2022/12/22 16:46:26;;;;;;;;;;;10.00;99.90;;;;;;5028732;28;19924;-73
2022/12/22 16:48:58;;;;;;;;;;;10.00;99.90;;;;;;5027895;28;20023;-73
2022/12/22 16:51:36;;;;;;;;;;;9.90;99.90;;;;;;5051718;28;19928;-73
2022/12/22 16:54:04;;;;;;;;;;;9.90;99.90;;;;;;5062341;28;20268;-73
2022/12/22 16:56:34;;;;;;;;;;;9.90;99.90;;;;;;5030017;28;20399;-73
2022/12/22 16:59:03;;;;;;;;;;;9.90;99.90;;;;;;5043931;28;19924;-73
2022/12/22 17:01:42;;;;;;;;;;;9.80;99.90;;;;;;5049248;28;19932;-72
2022/12/22 17:04:14;;;;;;;;;;;9.80;99.90;;;;;;5040535;28;20379;-73
2022/12/22 17:06:44;;;;;;;;;;;9.80;99.90;;;;;;5034941;28;19929;-73
2022/12/22 17:09:14;;;;;;;;;;;9.80;99.90;;;;;;5045869;28;19932;-72
2022/12/22 17:11:47;;;;;;;;;;;9.70;99.90;;;;;;5078316;28;19925;-73
2022/12/22 17:14:30;;;;;;;;;;;9.60;99.90;;;;;;5061186;28;19928;-73
2022/12/22 17:17:02;;;;;;;;;;;9.60;99.90;;;;;;5056003;28;19925;-73
2022/12/22 17:19:34;;;;;;;;;;;9.60;99.90;;;;;;5038422;28;20394;-73
2022/12/22 17:22:08;;;;;;;;;;;9.60;99.90;;;;;;5063065;28;20367;-73
2022/12/22 17:24:40;;;;;;;;;;;9.60;99.90;;;;;;5063931;28;19928;-73
2022/12/22 17:27:13;;;;;;;;;;;9.60;99.90;;;;;;5068962;28;20410;-73
2022/12/22 17:29:45;;;;;;;;;;;9.50;99.90;;;;;;5048201;28;20655;-73
2022/12/22 17:32:17;;;;;;;;;;;9.50;99.90;;;;;;5052479;28;19931;-73
2022/12/22 17:34:49;;;;;;;;;;;9.50;99.90;;;;;;5041069;28;20579;-73
2022/12/22 17:37:22;;;;;;;;;;;9.40;99.90;;;;;;5051054;28;19924;-73
2022/12/22 17:39:57;;;;;;;;;;;9.40;99.90;;;;;;5061284;28;19956;-73
2022/12/22 17:42:30;;;;;;;;;;;9.30;99.90;;;;;;5064471;28;19928;-73
2022/12/22 17:45:02;;;;;;;;;;;9.30;99.90;;;;;;5048574;28;19928;-73
2022/12/22 17:47:34;;;;;;;;;;;9.30;99.90;;;;;;5054460;28;19924;-73
2022/12/22 17:50:00;;;;;;;;;;;9.30;99.90;;;;;;5063977;28;19924;-73
2022/12/22 17:52:32;;;;;;;;;;;9.30;99.90;;;;;;5070887;28;19979;-73
2022/12/22 17:55:05;;;;;;;;;;;9.30;99.90;;;;;;5068707;28;19968;-73
2022/12/22 17:57:37;;;;;;;;;;;9.20;99.90;;;;;;5065137;28;19935;-73
2022/12/22 18:00:22;;;;;;;;;;;9.20;99.90;;;;;;5057313;28;19974;-73
2022/12/22 18:02:55;;;;;;;;;;;9.20;99.90;;;;;;5067192;28;20358;-73
2022/12/22 18:05:27;;;;;;;;;;;9.20;99.90;;;;;;5058776;28;19925;-73
2022/12/22 18:07:59;;;;;;;;;;;9.10;99.90;;;;;;5067503;28;19962;-72
2022/12/22 18:10:33;;;;;;;;;;;9.00;99.90;;;;;;5057191;28;19947;-73
2022/12/22 18:13:12;;;;;;;;;;;9.10;99.90;;;;;;5033183;28;19924;-73
2022/12/22 18:15:44;;;;;;;;;;;9.10;99.90;;;;;;5053975;28;19948;-73
2022/12/22 18:18:17;;;;;;;;;;;9.10;99.90;;;;;;5053278;28;20027;-73
2022/12/22 18:20:49;;;;;;;;;;;9.10;99.90;;;;;;5070693;28;19924;-73
2022/12/22 18:23:23;;;;;;;;;;;9.10;99.90;;;;;;5067742;28;19929;-74
2022/12/22 18:25:55;;;;;;;;;;;9.10;99.90;;;;;;5050368;28;20314;-73
2022/12/22 18:28:27;;;;;;;;;;;9.10;99.90;;;;;;5061170;28;19947;-72
2022/12/22 18:30:59;;;;;;;;;;;9.20;99.90;;;;;;5077069;28;20026;-72
2022/12/22 18:33:31;;;;;;;;;;;9.20;99.90;;;;;;5075430;28;19939;-72
2022/12/22 18:36:03;;;;;;;;;;;9.20;99.90;;;;;;5051686;28;20438;-73
2022/12/22 18:38:35;;;;;;;;;;;9.20;99.90;;;;;;5056433;28;19925;-73
2022/12/22 18:41:10;;;;;;;;;;;9.20;99.90;;;;;;5055904;28;19924;-73
2022/12/22 18:43:42;;;;;;;;;;;9.20;99.90;;;;;;5067479;28;20414;-73
2022/12/22 18:46:13;;;;;;;;;;;9.30;99.90;;;;;;5052234;28;19924;-73